Du har inga inställningar för hoppväder.nu

Hoppväder.nu

Senast uppdaterat 07:14

UTC-tid

2020-01-29 kl. 06:14


Sol och måne

Solen går upp 7:58 och går ner 16:15 (beräknade cirkatider)
Nästa fullmåne blir om 11 dagar (2020-02-09)

METAR

ESMQ (Kalmar)
(24 minuter sedan)
ESMQ 290550Z 28004KT 8000 SCT029 BKN034 OVC050 03/03 Q0988=



ESMX (Växjö)
(24 minuter sedan)
ESMX 290550Z 18004KT 4800 BR BKN002 02/02 Q0987=



ESMK (Ronneby)
(24 minuter sedan)
ESMK 290550Z 27008KT 240V300 9999 OVC015 04/02 Q0989=



ESSV (Visby)
(24 minuter sedan)
ESSV 290550Z 11004KT 3700 BR SCT005 BKN012 OVC028 03/03 Q0988 RWY 21 WET OR WATER PATCHES 51-100 PCT FCT 0.80=






TAF

ESMQ (Kalmar)
(44 minuter sedan)
ESMQ 290530Z 2906/2915 28003KT 5000 FEW006 BKN025 TEMPO 2906/2910 0300 FG VV002=



ESMX (Växjö)
(44 minuter sedan)
ESMX 290530Z 2906/2915 20005KT 0300 FG VV002 TEMPO 2906/2908 3000 BR SCT003 BECMG 2908/2910 9999 NSW SCT010 PROB40 2908/2915 2000 BR BKN008=



ESMK (Ronneby)
(48 minuter sedan)
ESMK 290526Z 2906/2915 25008KT 9999 BKN030 TEMPO 2906/2915 4000 -SHRA BR BKN008 SCT015CB=



ESSV (Visby)
(44 minuter sedan)
ESSV 290530Z 2906/2915 15006KT 5000 SCT007 BKN015 TEMPO 2906/2915 2000 RA BKN007=





Kodnycklar till TAF och METAR






LHP

(Borglanda är område K1a i Sydöstra delen)







Spotting

Hur fungerar spotthjälpen och Vindkartan?

Markvind är ca 0 m/s.
Vind på 600 m ca 0 m/s.
Vind på 1500 m ca 0 m/s.
Vind på 3000 m ca 0 m/s.
Filip Helge flyger ca 41 m/s över marken på finalen.
Du driver ca 0 m bakåt i frifall. (0 m)
Lämplig spot är 7 sekunder eller 288 m innan gropen.
(-7s eller -288 m)
För små grupper eller ensamhoppare bör man vänta 4-5 sekunder mellan grupperna.
För större grupper bör man vänta 7-9 sekunder mellan grupperna.


Vindkartan

Senast uppdaterad 07:14




All data kommer från LFV.se